Time,TemperatureF,DewpointF,PressureIn,WindDirection,WindDirectionDegrees,WindSpeedMPH,WindSpeedGustMPH,Humidity,HourlyPrecipIn,Conditions,Clouds,dailyrainin,SoftwareType,DateUTC
2013-04-30 00:12:00,69.2,67.0,29.87,South,188,1.0,4.0,93,0.01,,,0.00,weatherlink.com 1.10,2013-04-30 04:12:00,
2013-04-30 00:27:00,69.0,67.0,29.87,South,184,2.0,3.0,93,0.01,,,0.00,weatherlink.com 1.10,2013-04-30 04:27:00,
2013-04-30 00:43:00,68.8,67.0,29.87,South,188,2.0,5.0,93,0.01,,,0.00,weatherlink.com 1.10,2013-04-30 04:43:00,
2013-04-30 00:58:00,68.6,67.0,29.87,SSW,211,3.0,3.0,93,0.01,,,0.00,weatherlink.com 1.10,2013-04-30 04:58:00,
2013-04-30 01:13:00,68.7,67.0,29.86,SSW,208,2.0,2.0,93,0.00,,,0.00,weatherlink.com 1.10,2013-04-30 05:13:00,
2013-04-30 01:28:00,68.9,67.0,29.86,ENE,60,3.0,4.0,93,0.00,,,0.00,weatherlink.com 1.10,2013-04-30 05:28:00,
2013-04-30 01:43:00,68.8,67.0,29.86,SE,142,1.0,4.0,94,0.00,,,0.00,weatherlink.com 1.10,2013-04-30 05:43:00,
2013-04-30 01:59:00,68.7,67.0,29.86,SSE,152,0.0,2.0,94,0.00,,,0.00,weatherlink.com 1.10,2013-04-30 05:59:00,
2013-04-30 02:14:00,68.6,67.0,29.86,SSE,162,1.0,4.0,94,0.00,,,0.00,weatherlink.com 1.10,2013-04-30 06:14:00,
2013-04-30 02:29:00,68.6,67.0,29.86,SSE,149,1.0,1.0,94,0.00,,,0.00,weatherlink.com 1.10,2013-04-30 06:29:00,
2013-04-30 02:43:00,68.6,67.0,29.86,SW,225,0.0,1.0,94,0.00,,,0.00,weatherlink.com 1.10,2013-04-30 06:43:00,
2013-04-30 02:58:00,68.6,67.0,29.85,South,169,0.0,1.0,94,0.00,,,0.00,weatherlink.com 1.10,2013-04-30 06:58:00,
2013-04-30 03:15:00,68.6,67.0,29.85,SSW,207,0.0,0.0,95,0.00,,,0.00,weatherlink.com 1.10,2013-04-30 07:15:00,
2013-04-30 03:30:00,68.6,67.0,29.86,SW,214,0.0,3.0,95,0.00,,,0.00,weatherlink.com 1.10,2013-04-30 07:30:00,
2013-04-30 03:50:00,68.7,67.0,29.85,SW,236,1.0,3.0,94,0.00,,,0.00,weatherlink.com 1.10,2013-04-30 07:50:00,
2013-04-30 03:59:00,68.8,67.0,29.85,SW,219,1.0,2.0,94,0.00,,,0.00,weatherlink.com 1.10,2013-04-30 07:59:00,
2013-04-30 04:16:00,68.9,67.0,29.84,SSW,197,1.0,2.0,94,0.00,,,0.00,weatherlink.com 1.10,2013-04-30 08:16:00,
2013-04-30 04:29:00,69.0,67.0,29.84,SSW,211,4.0,5.0,94,0.00,,,0.00,weatherlink.com 1.10,2013-04-30 08:29:00,
2013-04-30 04:46:00,68.9,67.0,29.85,SW,221,0.0,3.0,93,0.00,,,0.00,weatherlink.com 1.10,2013-04-30 08:46:00,
2013-04-30 05:01:00,68.9,67.0,29.85,SSW,210,0.0,1.0,93,0.00,,,0.00,weatherlink.com 1.10,2013-04-30 09:01:00,
2013-04-30 05:21:00,69.1,67.0,29.86,SW,224,0.0,0.0,93,0.00,,,0.00,weatherlink.com 1.10,2013-04-30 09:21:00,
2013-04-30 05:31:00,69.2,67.0,29.86,WSW,242,0.0,0.0,93,0.00,,,0.00,weatherlink.com 1.10,2013-04-30 09:31:00,
2013-04-30 05:46:00,69.3,67.0,29.86,WSW,243,0.0,0.0,93,0.00,,,0.00,weatherlink.com 1.10,2013-04-30 09:46:00,
2013-04-30 06:00:00,69.4,68.0,29.86,West,273,0.0,3.0,94,0.02,,,0.02,weatherlink.com 1.10,2013-04-30 10:00:00,
2013-04-30 06:16:00,69.3,68.0,29.87,WNW,300,4.0,4.0,94,0.05,,,0.05,weatherlink.com 1.10,2013-04-30 10:16:00,
2013-04-30 06:31:00,69.4,68.0,29.89,NW,314,2.0,5.0,94,0.08,,,0.08,weatherlink.com 1.10,2013-04-30 10:31:00,
2013-04-30 06:46:00,69.5,68.0,29.89,WNW,293,2.0,5.0,95,0.11,,,0.12,weatherlink.com 1.10,2013-04-30 10:46:00,
2013-04-30 07:01:00,69.4,68.0,29.90,NW,314,2.0,5.0,95,0.16,,,0.18,weatherlink.com 1.10,2013-04-30 11:01:00,
2013-04-30 07:17:00,69.4,68.0,29.89,WNW,302,4.0,4.0,95,0.20,,,0.25,weatherlink.com 1.10,2013-04-30 11:17:00,
2013-04-30 07:35:00,69.6,68.0,29.91,SW,229,4.0,5.0,95,0.24,,,0.33,weatherlink.com 1.10,2013-04-30 11:35:00,
2013-04-30 07:47:00,69.5,68.0,29.90,SW,236,2.0,4.0,96,0.26,,,0.38,weatherlink.com 1.10,2013-04-30 11:47:00,
2013-04-30 08:02:00,69.5,68.0,29.90,WSW,239,4.0,5.0,95,0.26,,,0.44,weatherlink.com 1.10,2013-04-30 12:02:00,
2013-04-30 08:17:00,69.4,68.0,29.89,WSW,256,3.0,7.0,94,0.20,,,0.45,weatherlink.com 1.10,2013-04-30 12:17:00,
2013-04-30 08:32:00,69.4,67.0,29.89,West,276,3.0,6.0,92,0.13,,,0.45,weatherlink.com 1.10,2013-04-30 12:32:00,
2013-04-30 08:47:00,69.6,67.0,29.89,WSW,252,4.0,4.0,91,0.07,,,0.45,weatherlink.com 1.10,2013-04-30 12:47:00,
2013-04-30 09:02:00,70.2,67.0,29.89,SSW,211,4.0,6.0,90,0.01,,,0.45,weatherlink.com 1.10,2013-04-30 13:02:00,
2013-04-30 09:17:00,71.1,67.0,29.90,SW,234,4.0,6.0,87,0.00,,,0.45,weatherlink.com 1.10,2013-04-30 13:17:00,
2013-04-30 09:32:00,72.0,67.0,29.90,WSW,243,6.0,7.0,85,0.00,,,0.45,weatherlink.com 1.10,2013-04-30 13:32:00,
2013-04-30 09:47:00,72.8,68.0,29.90,SSW,210,4.0,6.0,84,0.00,,,0.45,weatherlink.com 1.10,2013-04-30 13:47:00,
2013-04-30 10:02:00,73.1,68.0,29.90,West,264,2.0,4.0,84,0.00,,,0.45,weatherlink.com 1.10,2013-04-30 14:02:00,
2013-04-30 10:17:00,73.0,67.0,29.90,West,274,2.0,5.0,81,0.00,,,0.45,weatherlink.com 1.10,2013-04-30 14:17:00,
2013-04-30 10:32:00,73.5,67.0,29.90,SSW,208,2.0,4.0,80,0.00,,,0.45,weatherlink.com 1.10,2013-04-30 14:32:00,
2013-04-30 10:47:00,75.0,66.0,29.90,WSW,248,2.0,4.0,74,0.00,,,0.45,weatherlink.com 1.10,2013-04-30 14:47:00,
2013-04-30 11:02:00,75.6,66.0,29.91,West,262,3.0,4.0,72,0.00,,,0.45,weatherlink.com 1.10,2013-04-30 15:02:00,
2013-04-30 11:18:00,76.5,66.0,29.90,WSW,248,3.0,4.0,71,0.00,,,0.45,weatherlink.com 1.10,2013-04-30 15:18:00,
2013-04-30 11:33:00,78.9,67.0,29.90,South,191,3.0,5.0,66,0.00,,,0.45,weatherlink.com 1.10,2013-04-30 15:33:00,
2013-04-30 11:48:00,80.4,67.0,29.90,SW,236,3.0,4.0,63,0.00,,,0.45,weatherlink.com 1.10,2013-04-30 15:48:00,
2013-04-30 12:03:00,81.4,64.0,29.89,WNW,283,2.0,5.0,56,0.00,,,0.45,weatherlink.com 1.10,2013-04-30 16:03:00,
2013-04-30 12:19:00,81.7,63.0,29.89,SSE,165,1.0,7.0,54,0.00,,,0.45,weatherlink.com 1.10,2013-04-30 16:19:00,
2013-04-30 12:33:00,83.2,64.0,29.89,WSW,246,4.0,5.0,53,0.00,,,0.45,weatherlink.com 1.10,2013-04-30 16:33:00,
2013-04-30 12:53:00,83.0,64.0,29.88,SSE,160,1.0,6.0,52,0.00,,,0.45,weatherlink.com 1.10,2013-04-30 16:53:00,
2013-04-30 13:04:00,83.4,64.0,29.87,SSE,147,2.0,8.0,52,0.00,,,0.45,weatherlink.com 1.10,2013-04-30 17:04:00,
2013-04-30 13:18:00,84.4,63.0,29.86,SSW,195,2.0,7.0,49,0.00,,,0.45,weatherlink.com 1.10,2013-04-30 17:18:00,
2013-04-30 13:34:00,83.9,62.0,29.86,West,273,4.0,7.0,47,0.00,,,0.45,weatherlink.com 1.10,2013-04-30 17:34:00,
2013-04-30 13:49:00,85.7,62.0,29.85,WSW,239,2.0,6.0,45,0.00,,,0.45,weatherlink.com 1.10,2013-04-30 17:49:00,
2013-04-30 14:04:00,84.1,61.0,29.85,West,263,6.0,8.0,45,0.00,,,0.45,weatherlink.com 1.10,2013-04-30 18:04:00,
2013-04-30 14:20:00,84.6,62.0,29.85,South,173,2.0,6.0,46,0.00,,,0.45,weatherlink.com 1.10,2013-04-30 18:20:00,
2013-04-30 14:35:00,84.7,62.0,29.85,NW,307,6.0,6.0,46,0.00,,,0.45,weatherlink.com 1.10,2013-04-30 18:35:00,
2013-04-30 14:50:00,85.6,61.0,29.85,West,280,6.0,8.0,44,0.00,,,0.45,weatherlink.com 1.10,2013-04-30 18:50:00,
2013-04-30 15:06:00,85.2,61.0,29.84,WSW,251,1.0,7.0,44,0.00,,,0.45,weatherlink.com 1.10,2013-04-30 19:06:00,
2013-04-30 15:21:00,86.9,61.0,29.83,NNW,340,1.0,6.0,42,0.00,,,0.45,weatherlink.com 1.10,2013-04-30 19:21:00,
2013-04-30 15:36:00,86.8,61.0,29.83,West,266,2.0,7.0,42,0.00,,,0.45,weatherlink.com 1.10,2013-04-30 19:36:00,
2013-04-30 15:50:00,86.9,61.0,29.82,ENE,75,0.0,5.0,42,0.00,,,0.45,weatherlink.com 1.10,2013-04-30 19:50:00,
2013-04-30 16:06:00,85.9,62.0,29.82,ENE,70,6.0,8.0,45,0.00,,,0.45,weatherlink.com 1.10,2013-04-30 20:06:00,
2013-04-30 16:22:00,85.3,61.0,29.82,NNE,24,1.0,6.0,44,0.00,,,0.45,weatherlink.com 1.10,2013-04-30 20:22:00,
2013-04-30 16:38:00,87.3,61.0,29.82,NNE,32,1.0,3.0,42,0.00,,,0.45,weatherlink.com 1.10,2013-04-30 20:38:00,
2013-04-30 16:52:00,86.5,61.0,29.82,East,84,3.0,8.0,42,0.00,,,0.45,weatherlink.com 1.10,2013-04-30 20:52:00,
2013-04-30 17:06:00,87.5,60.0,29.82,NNW,329,4.0,7.0,40,0.00,,,0.45,weatherlink.com 1.10,2013-04-30 21:06:00,
2013-04-30 17:21:00,87.8,61.0,29.82,South,172,4.0,5.0,41,0.00,,,0.45,weatherlink.com 1.10,2013-04-30 21:21:00,
2013-04-30 17:37:00,88.0,61.0,29.82,SSE,156,6.0,13.0,40,0.00,,,0.45,weatherlink.com 1.10,2013-04-30 21:37:00,
2013-04-30 17:52:00,83.8,67.0,29.82,SSE,153,8.0,16.0,58,0.00,,,0.45,weatherlink.com 1.10,2013-04-30 21:52:00,
2013-04-30 18:06:00,80.4,69.0,29.82,SW,225,5.0,17.0,69,0.00,,,0.45,weatherlink.com 1.10,2013-04-30 22:06:00,
2013-04-30 18:22:00,77.0,70.0,29.84,South,177,11.0,18.0,78,0.16,,,0.61,weatherlink.com 1.10,2013-04-30 22:22:00,
2013-04-30 18:37:00,73.2,68.0,29.85,SE,143,8.0,13.0,83,0.17,,,0.62,weatherlink.com 1.10,2013-04-30 22:37:00,
2013-04-30 18:52:00,72.8,68.0,29.87,SSE,155,3.0,6.0,85,0.18,,,0.63,weatherlink.com 1.10,2013-04-30 22:52:00,
2013-04-30 19:07:00,71.0,67.0,29.87,South,190,12.0,17.0,86,0.25,,,0.70,weatherlink.com 1.10,2013-04-30 23:07:00,
2013-04-30 19:23:00,71.7,68.0,29.87,SSE,150,9.0,15.0,89,0.09,,,0.70,weatherlink.com 1.10,2013-04-30 23:23:00,
2013-04-30 19:38:00,71.3,68.0,29.86,SSE,159,5.0,10.0,89,0.08,,,0.70,weatherlink.com 1.10,2013-04-30 23:38:00,
2013-04-30 19:59:00,70.7,68.0,29.88,SSE,160,5.0,9.0,90,0.03,,,0.70,weatherlink.com 1.10,2013-04-30 23:59:00,
2013-04-30 20:08:00,71.0,68.0,29.89,ENE,74,1.0,9.0,90,0.00,,,0.70,weatherlink.com 1.10,2013-05-01 00:08:00,
2013-04-30 20:23:00,71.4,68.0,29.90,SSE,150,2.0,6.0,90,0.00,,,0.70,weatherlink.com 1.10,2013-05-01 00:23:00,
2013-04-30 20:38:00,71.6,69.0,29.91,SW,221,0.0,2.0,90,0.00,,,0.70,weatherlink.com 1.10,2013-05-01 00:38:00,
2013-04-30 20:54:00,71.6,69.0,29.92,NE,56,3.0,5.0,91,0.00,,,0.70,weatherlink.com 1.10,2013-05-01 00:54:00,
2013-04-30 21:08:00,71.7,69.0,29.93,NE,42,2.0,5.0,92,0.01,,,0.71,weatherlink.com 1.10,2013-05-01 01:08:00,
2013-04-30 21:23:00,71.4,69.0,29.92,NE,51,4.0,7.0,93,0.02,,,0.72,weatherlink.com 1.10,2013-05-01 01:23:00,
2013-04-30 21:38:00,70.7,69.0,29.92,NNE,33,4.0,7.0,93,0.02,,,0.72,weatherlink.com 1.10,2013-05-01 01:38:00,
2013-04-30 21:53:00,70.3,68.0,29.92,ESE,104,6.0,7.0,93,0.04,,,0.74,weatherlink.com 1.10,2013-05-01 01:53:00,
2013-04-30 22:09:00,70.3,68.0,29.92,SSE,149,0.0,2.0,93,0.03,,,0.74,weatherlink.com 1.10,2013-05-01 02:09:00,
2013-04-30 22:24:00,70.5,68.0,29.90,SSW,195,4.0,5.0,93,0.02,,,0.74,weatherlink.com 1.10,2013-05-01 02:24:00,
2013-04-30 22:39:00,70.8,69.0,29.92,NNW,332,6.0,6.0,93,0.02,,,0.74,weatherlink.com 1.10,2013-05-01 02:39:00,
2013-04-30 22:55:00,70.4,68.0,29.91,NNE,20,0.0,5.0,93,0.00,,,0.74,weatherlink.com 1.10,2013-05-01 02:55:00,
2013-04-30 23:10:00,70.4,69.0,29.91,SSE,155,0.0,2.0,94,0.00,,,0.74,weatherlink.com 1.10,2013-05-01 03:10:00,
2013-04-30 23:24:00,70.6,69.0,29.91,ENE,70,0.0,1.0,94,0.00,,,0.74,weatherlink.com 1.10,2013-05-01 03:24:00,
2013-04-30 23:39:00,70.9,69.0,29.92,SE,146,1.0,3.0,94,0.00,,,0.74,weatherlink.com 1.10,2013-05-01 03:39:00,
2013-04-30 23:54:00,71.1,69.0,29.91,ESE,114,1.0,3.0,94,0.00,,,0.74,weatherlink.com 1.10,2013-05-01 03:54:00,